sensor_id;sensor_type;location;lat;lon;timestamp;P1;durP1;ratioP1;P2;durP2;ratioP2
15408;SDS011;7803;48.130;13.788;2023-05-14T00:01:17;10.80;;;8.02;;
15408;SDS011;7803;48.130;13.788;2023-05-14T00:04:19;10.63;;;7.95;;
15408;SDS011;7803;48.130;13.788;2023-05-14T00:07:21;9.70;;;7.80;;
15408;SDS011;7803;48.130;13.788;2023-05-14T00:10:29;10.95;;;7.85;;
15408;SDS011;7803;48.130;13.788;2023-05-14T00:13:33;10.52;;;8.02;;
15408;SDS011;7803;48.130;13.788;2023-05-14T00:16:35;11.20;;;7.97;;
15408;SDS011;7803;48.130;13.788;2023-05-14T00:19:37;9.45;;;7.80;;
15408;SDS011;7803;48.130;13.788;2023-05-14T00:22:41;8.85;;;7.57;;
15408;SDS011;7803;48.130;13.788;2023-05-14T00:25:43;9.18;;;7.32;;
15408;SDS011;7803;48.130;13.788;2023-05-14T00:28:46;9.80;;;7.68;;
15408;SDS011;7803;48.130;13.788;2023-05-14T00:31:48;8.68;;;7.20;;
15408;SDS011;7803;48.130;13.788;2023-05-14T00:34:50;9.52;;;7.38;;
15408;SDS011;7803;48.130;13.788;2023-05-14T00:37:52;8.82;;;7.38;;
15408;SDS011;7803;48.130;13.788;2023-05-14T00:40:54;9.52;;;7.50;;
15408;SDS011;7803;48.130;13.788;2023-05-14T00:43:58;8.98;;;7.35;;
15408;SDS011;7803;48.130;13.788;2023-05-14T00:47:00;8.32;;;6.88;;
15408;SDS011;7803;48.130;13.788;2023-05-14T00:50:02;12.60;;;7.40;;
15408;SDS011;7803;48.130;13.788;2023-05-14T00:53:05;9.13;;;6.80;;
15408;SDS011;7803;48.130;13.788;2023-05-14T00:56:09;9.38;;;6.43;;
15408;SDS011;7803;48.130;13.788;2023-05-14T00:59:13;7.22;;;6.40;;
15408;SDS011;7803;48.130;13.788;2023-05-14T01:02:15;9.15;;;6.80;;
15408;SDS011;7803;48.130;13.788;2023-05-14T01:05:17;7.70;;;5.88;;
15408;SDS011;7803;48.130;13.788;2023-05-14T01:08:22;8.05;;;6.20;;
15408;SDS011;7803;48.130;13.788;2023-05-14T01:11:31;8.73;;;6.40;;
15408;SDS011;7803;48.130;13.788;2023-05-14T01:14:44;7.93;;;6.68;;
15408;SDS011;7803;48.130;13.788;2023-05-14T01:17:55;7.90;;;6.22;;
15408;SDS011;7803;48.130;13.788;2023-05-14T01:21:01;7.05;;;6.03;;
15408;SDS011;7803;48.130;13.788;2023-05-14T01:24:05;7.70;;;6.00;;
15408;SDS011;7803;48.130;13.788;2023-05-14T01:27:09;8.18;;;6.18;;
15408;SDS011;7803;48.130;13.788;2023-05-14T01:30:18;6.53;;;5.80;;
15408;SDS011;7803;48.130;13.788;2023-05-14T01:33:24;7.70;;;6.22;;
15408;SDS011;7803;48.130;13.788;2023-05-14T01:36:29;6.88;;;6.18;;
15408;SDS011;7803;48.130;13.788;2023-05-14T01:39:34;6.45;;;5.75;;
15408;SDS011;7803;48.130;13.788;2023-05-14T01:42:37;7.07;;;5.88;;
15408;SDS011;7803;48.130;13.788;2023-05-14T01:45:40;6.57;;;5.45;;
15408;SDS011;7803;48.130;13.788;2023-05-14T01:48:43;6.53;;;5.50;;
15408;SDS011;7803;48.130;13.788;2023-05-14T01:51:45;7.45;;;6.20;;
15408;SDS011;7803;48.130;13.788;2023-05-14T01:54:49;6.55;;;5.70;;
15408;SDS011;7803;48.130;13.788;2023-05-14T01:57:51;6.55;;;5.80;;
15408;SDS011;7803;48.130;13.788;2023-05-14T02:00:53;7.85;;;5.47;;
15408;SDS011;7803;48.130;13.788;2023-05-14T02:03:55;6.10;;;5.22;;
15408;SDS011;7803;48.130;13.788;2023-05-14T02:06:57;7.68;;;5.78;;
15408;SDS011;7803;48.130;13.788;2023-05-14T02:10:00;5.85;;;5.25;;
15408;SDS011;7803;48.130;13.788;2023-05-14T02:13:02;5.30;;;4.82;;
15408;SDS011;7803;48.130;13.788;2023-05-14T02:16:05;5.70;;;5.03;;
15408;SDS011;7803;48.130;13.788;2023-05-14T02:19:07;6.10;;;5.50;;
15408;SDS011;7803;48.130;13.788;2023-05-14T02:22:09;5.63;;;4.90;;
15408;SDS011;7803;48.130;13.788;2023-05-14T02:25:12;6.60;;;5.57;;
15408;SDS011;7803;48.130;13.788;2023-05-14T02:28:14;6.47;;;4.90;;
15408;SDS011;7803;48.130;13.788;2023-05-14T02:31:16;6.70;;;5.22;;
15408;SDS011;7803;48.130;13.788;2023-05-14T02:34:18;5.65;;;5.10;;
15408;SDS011;7803;48.130;13.788;2023-05-14T02:37:20;7.40;;;5.57;;
15408;SDS011;7803;48.130;13.788;2023-05-14T02:40:23;8.20;;;5.55;;
15408;SDS011;7803;48.130;13.788;2023-05-14T02:43:25;5.85;;;5.22;;
15408;SDS011;7803;48.130;13.788;2023-05-14T02:46:29;9.13;;;5.40;;
15408;SDS011;7803;48.130;13.788;2023-05-14T02:49:31;6.63;;;5.40;;
15408;SDS011;7803;48.130;13.788;2023-05-14T02:52:33;6.10;;;5.28;;
15408;SDS011;7803;48.130;13.788;2023-05-14T02:55:36;6.28;;;5.40;;
15408;SDS011;7803;48.130;13.788;2023-05-14T02:58:38;7.20;;;5.80;;
15408;SDS011;7803;48.130;13.788;2023-05-14T03:01:40;6.32;;;5.43;;
15408;SDS011;7803;48.130;13.788;2023-05-14T03:04:42;6.15;;;5.55;;
15408;SDS011;7803;48.130;13.788;2023-05-14T03:07:44;5.82;;;4.95;;
15408;SDS011;7803;48.130;13.788;2023-05-14T03:10:48;5.72;;;5.13;;
15408;SDS011;7803;48.130;13.788;2023-05-14T03:13:50;7.03;;;6.00;;
15408;SDS011;7803;48.130;13.788;2023-05-14T03:16:52;7.35;;;5.40;;
15408;SDS011;7803;48.130;13.788;2023-05-14T03:19:54;6.28;;;5.68;;
15408;SDS011;7803;48.130;13.788;2023-05-14T03:22:56;6.28;;;5.65;;
15408;SDS011;7803;48.130;13.788;2023-05-14T03:25:59;7.47;;;5.50;;
15408;SDS011;7803;48.130;13.788;2023-05-14T03:29:01;5.95;;;5.35;;
15408;SDS011;7803;48.130;13.788;2023-05-14T03:32:03;7.00;;;5.57;;
15408;SDS011;7803;48.130;13.788;2023-05-14T03:35:06;6.68;;;5.78;;
15408;SDS011;7803;48.130;13.788;2023-05-14T03:38:09;8.18;;;5.88;;
15408;SDS011;7803;48.130;13.788;2023-05-14T03:41:12;6.65;;;5.90;;
15408;SDS011;7803;48.130;13.788;2023-05-14T03:44:14;6.97;;;5.90;;
15408;SDS011;7803;48.130;13.788;2023-05-14T03:47:16;6.20;;;5.60;;
15408;SDS011;7803;48.130;13.788;2023-05-14T03:50:18;6.47;;;5.85;;
15408;SDS011;7803;48.130;13.788;2023-05-14T03:53:20;6.65;;;5.95;;
15408;SDS011;7803;48.130;13.788;2023-05-14T03:56:23;6.00;;;5.45;;
15408;SDS011;7803;48.130;13.788;2023-05-14T03:59:25;6.00;;;5.43;;
15408;SDS011;7803;48.130;13.788;2023-05-14T04:02:27;6.53;;;5.63;;
15408;SDS011;7803;48.130;13.788;2023-05-14T04:05:29;6.38;;;5.72;;
15408;SDS011;7803;48.130;13.788;2023-05-14T04:08:31;6.25;;;5.55;;
15408;SDS011;7803;48.130;13.788;2023-05-14T04:11:35;6.95;;;6.25;;
15408;SDS011;7803;48.130;13.788;2023-05-14T04:14:37;7.63;;;5.60;;
15408;SDS011;7803;48.130;13.788;2023-05-14T04:17:39;6.65;;;5.85;;
15408;SDS011;7803;48.130;13.788;2023-05-14T04:20:40;6.40;;;5.80;;
15408;SDS011;7803;48.130;13.788;2023-05-14T04:23:42;8.13;;;6.10;;
15408;SDS011;7803;48.130;13.788;2023-05-14T04:26:46;6.70;;;6.07;;
15408;SDS011;7803;48.130;13.788;2023-05-14T04:29:48;6.50;;;5.90;;
15408;SDS011;7803;48.130;13.788;2023-05-14T04:32:50;6.47;;;5.80;;
15408;SDS011;7803;48.130;13.788;2023-05-14T04:35:52;6.38;;;5.75;;
15408;SDS011;7803;48.130;13.788;2023-05-14T04:38:54;6.45;;;5.82;;
15408;SDS011;7803;48.130;13.788;2023-05-14T04:41:58;6.38;;;5.78;;
15408;SDS011;7803;48.130;13.788;2023-05-14T04:45:00;6.70;;;6.00;;
15408;SDS011;7803;48.130;13.788;2023-05-14T04:48:02;6.47;;;5.80;;
15408;SDS011;7803;48.130;13.788;2023-05-14T04:51:04;6.63;;;5.78;;
15408;SDS011;7803;48.130;13.788;2023-05-14T04:54:06;6.32;;;5.78;;
15408;SDS011;7803;48.130;13.788;2023-05-14T04:57:09;6.97;;;6.28;;
15408;SDS011;7803;48.130;13.788;2023-05-14T05:00:11;6.53;;;5.90;;
15408;SDS011;7803;48.130;13.788;2023-05-14T05:03:14;6.53;;;5.88;;
15408;SDS011;7803;48.130;13.788;2023-05-14T05:06:17;6.72;;;6.00;;
15408;SDS011;7803;48.130;13.788;2023-05-14T05:09:19;6.47;;;5.88;;
15408;SDS011;7803;48.130;13.788;2023-05-14T05:12:22;6.05;;;5.55;;
15408;SDS011;7803;48.130;13.788;2023-05-14T05:15:25;6.60;;;5.97;;
15408;SDS011;7803;48.130;13.788;2023-05-14T05:18:27;6.82;;;5.88;;
15408;SDS011;7803;48.130;13.788;2023-05-14T05:21:29;6.38;;;5.78;;
15408;SDS011;7803;48.130;13.788;2023-05-14T05:24:31;7.10;;;5.82;;
15408;SDS011;7803;48.130;13.788;2023-05-14T05:27:34;7.15;;;5.72;;
15408;SDS011;7803;48.130;13.788;2023-05-14T05:30:36;7.93;;;6.05;;
15408;SDS011;7803;48.130;13.788;2023-05-14T05:33:38;5.75;;;5.25;;
15408;SDS011;7803;48.130;13.788;2023-05-14T05:36:41;6.18;;;5.65;;
15408;SDS011;7803;48.130;13.788;2023-05-14T05:39:43;5.97;;;5.38;;
15408;SDS011;7803;48.130;13.788;2023-05-14T05:42:48;6.90;;;5.93;;
15408;SDS011;7803;48.130;13.788;2023-05-14T05:45:50;5.75;;;5.22;;
15408;SDS011;7803;48.130;13.788;2023-05-14T05:48:51;5.97;;;5.38;;
15408;SDS011;7803;48.130;13.788;2023-05-14T05:51:53;5.82;;;5.32;;
15408;SDS011;7803;48.130;13.788;2023-05-14T05:54:56;6.32;;;5.70;;
15408;SDS011;7803;48.130;13.788;2023-05-14T05:57:59;5.82;;;5.32;;
15408;SDS011;7803;48.130;13.788;2023-05-14T06:01:01;5.70;;;5.20;;
15408;SDS011;7803;48.130;13.788;2023-05-14T06:04:03;6.43;;;5.53;;
15408;SDS011;7803;48.130;13.788;2023-05-14T06:07:05;5.82;;;5.32;;
15408;SDS011;7803;48.130;13.788;2023-05-14T06:10:07;6.07;;;5.47;;
15408;SDS011;7803;48.130;13.788;2023-05-14T06:13:11;6.00;;;5.30;;
15408;SDS011;7803;48.130;13.788;2023-05-14T06:16:13;6.10;;;5.50;;
15408;SDS011;7803;48.130;13.788;2023-05-14T06:19:15;5.78;;;5.22;;
15408;SDS011;7803;48.130;13.788;2023-05-14T06:22:17;6.00;;;5.50;;
15408;SDS011;7803;48.130;13.788;2023-05-14T06:25:19;5.45;;;4.90;;
15408;SDS011;7803;48.130;13.788;2023-05-14T06:28:22;5.35;;;4.85;;
15408;SDS011;7803;48.130;13.788;2023-05-14T06:31:24;5.93;;;5.32;;
15408;SDS011;7803;48.130;13.788;2023-05-14T06:34:26;6.88;;;5.85;;
15408;SDS011;7803;48.130;13.788;2023-05-14T06:37:28;5.45;;;4.95;;
15408;SDS011;7803;48.130;13.788;2023-05-14T06:40:30;5.40;;;4.90;;
15408;SDS011;7803;48.130;13.788;2023-05-14T06:43:34;5.65;;;5.15;;
15408;SDS011;7803;48.130;13.788;2023-05-14T06:46:36;5.60;;;5.10;;
15408;SDS011;7803;48.130;13.788;2023-05-14T06:49:38;5.80;;;5.30;;
15408;SDS011;7803;48.130;13.788;2023-05-14T06:52:40;5.45;;;4.95;;
15408;SDS011;7803;48.130;13.788;2023-05-14T06:55:43;5.63;;;5.10;;
15408;SDS011;7803;48.130;13.788;2023-05-14T06:58:46;6.00;;;5.32;;
15408;SDS011;7803;48.130;13.788;2023-05-14T07:01:48;5.70;;;5.20;;
15408;SDS011;7803;48.130;13.788;2023-05-14T07:04:50;5.85;;;5.05;;
15408;SDS011;7803;48.130;13.788;2023-05-14T07:07:52;4.95;;;4.07;;
15408;SDS011;7803;48.130;13.788;2023-05-14T07:10:54;5.13;;;4.70;;
15408;SDS011;7803;48.130;13.788;2023-05-14T07:13:57;5.07;;;4.68;;
15408;SDS011;7803;48.130;13.788;2023-05-14T07:17:00;5.50;;;4.95;;
15408;SDS011;7803;48.130;13.788;2023-05-14T07:20:02;5.03;;;4.55;;
15408;SDS011;7803;48.130;13.788;2023-05-14T07:23:04;5.32;;;4.82;;
15408;SDS011;7803;48.130;13.788;2023-05-14T07:26:06;4.80;;;4.40;;
15408;SDS011;7803;48.130;13.788;2023-05-14T07:29:10;5.20;;;4.70;;
15408;SDS011;7803;48.130;13.788;2023-05-14T07:32:12;4.88;;;4.47;;
15408;SDS011;7803;48.130;13.788;2023-05-14T07:35:14;5.32;;;4.40;;
15408;SDS011;7803;48.130;13.788;2023-05-14T07:38:18;5.75;;;4.47;;
15408;SDS011;7803;48.130;13.788;2023-05-14T07:41:20;5.00;;;4.57;;
15408;SDS011;7803;48.130;13.788;2023-05-14T07:44:24;5.43;;;4.88;;
15408;SDS011;7803;48.130;13.788;2023-05-14T07:47:26;5.07;;;4.57;;
15408;SDS011;7803;48.130;13.788;2023-05-14T07:50:28;4.30;;;3.90;;
15408;SDS011;7803;48.130;13.788;2023-05-14T07:53:30;4.47;;;4.13;;
15408;SDS011;7803;48.130;13.788;2023-05-14T07:56:32;4.60;;;4.20;;
15408;SDS011;7803;48.130;13.788;2023-05-14T07:59:35;5.30;;;4.80;;
15408;SDS011;7803;48.130;13.788;2023-05-14T08:02:37;4.47;;;4.07;;
15408;SDS011;7803;48.130;13.788;2023-05-14T08:05:39;4.32;;;3.90;;
15408;SDS011;7803;48.130;13.788;2023-05-14T08:08:41;4.95;;;4.45;;
15408;SDS011;7803;48.130;13.788;2023-05-14T08:11:43;5.15;;;4.60;;
15408;SDS011;7803;48.130;13.788;2023-05-14T08:14:47;4.63;;;4.10;;
15408;SDS011;7803;48.130;13.788;2023-05-14T08:17:49;4.38;;;3.97;;
15408;SDS011;7803;48.130;13.788;2023-05-14T08:20:50;4.72;;;4.22;;
15408;SDS011;7803;48.130;13.788;2023-05-14T08:23:52;4.50;;;4.00;;
15408;SDS011;7803;48.130;13.788;2023-05-14T08:26:54;4.80;;;4.30;;
15408;SDS011;7803;48.130;13.788;2023-05-14T08:29:58;4.40;;;4.00;;
15408;SDS011;7803;48.130;13.788;2023-05-14T08:33:00;4.78;;;4.38;;
15408;SDS011;7803;48.130;13.788;2023-05-14T08:36:02;4.55;;;4.18;;
15408;SDS011;7803;48.130;13.788;2023-05-14T08:39:04;4.13;;;3.75;;
15408;SDS011;7803;48.130;13.788;2023-05-14T08:42:07;4.40;;;4.00;;
15408;SDS011;7803;48.130;13.788;2023-05-14T08:45:15;4.43;;;4.03;;
15408;SDS011;7803;48.130;13.788;2023-05-14T08:48:19;4.15;;;3.75;;
15408;SDS011;7803;48.130;13.788;2023-05-14T08:51:23;3.83;;;3.53;;
15408;SDS011;7803;48.130;13.788;2023-05-14T08:54:26;4.18;;;3.78;;
15408;SDS011;7803;48.130;13.788;2023-05-14T08:57:29;4.28;;;3.88;;
15408;SDS011;7803;48.130;13.788;2023-05-14T09:00:33;4.43;;;4.03;;
15408;SDS011;7803;48.130;13.788;2023-05-14T09:03:35;3.90;;;3.60;;
15408;SDS011;7803;48.130;13.788;2023-05-14T09:06:38;3.97;;;3.65;;
15408;SDS011;7803;48.130;13.788;2023-05-14T09:09:42;4.82;;;3.80;;
15408;SDS011;7803;48.130;13.788;2023-05-14T09:12:45;5.93;;;4.20;;
15408;SDS011;7803;48.130;13.788;2023-05-14T09:15:48;4.97;;;4.40;;
15408;SDS011;7803;48.130;13.788;2023-05-14T09:18:50;6.38;;;3.92;;
15408;SDS011;7803;48.130;13.788;2023-05-14T09:21:54;4.25;;;3.67;;
15408;SDS011;7803;48.130;13.788;2023-05-14T09:25:01;3.92;;;3.63;;
15408;SDS011;7803;48.130;13.788;2023-05-14T09:28:04;4.10;;;3.70;;
15408;SDS011;7803;48.130;13.788;2023-05-14T09:31:10;3.92;;;3.63;;
15408;SDS011;7803;48.130;13.788;2023-05-14T09:34:12;4.15;;;3.75;;
15408;SDS011;7803;48.130;13.788;2023-05-14T09:37:24;4.18;;;3.78;;
15408;SDS011;7803;48.130;13.788;2023-05-14T09:40:29;4.57;;;4.10;;
15408;SDS011;7803;48.130;13.788;2023-05-14T09:43:31;4.10;;;3.72;;
15408;SDS011;7803;48.130;13.788;2023-05-14T09:46:34;4.38;;;3.90;;
15408;SDS011;7803;48.130;13.788;2023-05-14T09:49:36;4.10;;;3.70;;
15408;SDS011;7803;48.130;13.788;2023-05-14T09:52:38;412.95;;;367.77;;
15408;SDS011;7803;48.130;13.788;2023-05-14T09:55:40;976.65;;;765.88;;
15408;SDS011;7803;48.130;13.788;2023-05-14T09:58:42;635.30;;;531.30;;
15408;SDS011;7803;48.130;13.788;2023-05-14T10:01:45;290.88;;;221.77;;
15408;SDS011;7803;48.130;13.788;2023-05-14T10:04:49;180.48;;;134.98;;
15408;SDS011;7803;48.130;13.788;2023-05-14T10:07:53;112.88;;;85.47;;
15408;SDS011;7803;48.130;13.788;2023-05-14T10:10:57;87.15;;;66.10;;
15408;SDS011;7803;48.130;13.788;2023-05-14T10:14:02;69.90;;;53.70;;
15408;SDS011;7803;48.130;13.788;2023-05-14T10:17:09;79.72;;;60.85;;
15408;SDS011;7803;48.130;13.788;2023-05-14T10:20:17;81.65;;;62.10;;
15408;SDS011;7803;48.130;13.788;2023-05-14T10:23:20;77.97;;;58.85;;
15408;SDS011;7803;48.130;13.788;2023-05-14T10:26:22;76.50;;;56.95;;
15408;SDS011;7803;48.130;13.788;2023-05-14T10:29:30;71.80;;;54.53;;
15408;SDS011;7803;48.130;13.788;2023-05-14T10:32:34;70.03;;;52.72;;
15408;SDS011;7803;48.130;13.788;2023-05-14T10:35:50;66.18;;;49.92;;
15408;SDS011;7803;48.130;13.788;2023-05-14T10:38:55;62.78;;;47.50;;
15408;SDS011;7803;48.130;13.788;2023-05-14T10:41:57;60.70;;;45.95;;
15408;SDS011;7803;48.130;13.788;2023-05-14T10:45:00;55.00;;;43.47;;
15408;SDS011;7803;48.130;13.788;2023-05-14T10:48:07;55.75;;;42.20;;
15408;SDS011;7803;48.130;13.788;2023-05-14T10:51:09;53.55;;;40.63;;
15408;SDS011;7803;48.130;13.788;2023-05-14T10:54:12;51.40;;;39.40;;
15408;SDS011;7803;48.130;13.788;2023-05-14T10:57:14;50.47;;;37.95;;
15408;SDS011;7803;48.130;13.788;2023-05-14T11:00:17;46.20;;;36.17;;
15408;SDS011;7803;48.130;13.788;2023-05-14T11:03:21;45.03;;;34.63;;
15408;SDS011;7803;48.130;13.788;2023-05-14T11:06:23;41.15;;;32.00;;
15408;SDS011;7803;48.130;13.788;2023-05-14T11:09:26;34.97;;;27.30;;
15408;SDS011;7803;48.130;13.788;2023-05-14T11:12:28;35.63;;;26.38;;
15408;SDS011;7803;48.130;13.788;2023-05-14T11:15:30;34.25;;;26.40;;
15408;SDS011;7803;48.130;13.788;2023-05-14T11:18:34;31.85;;;24.65;;
15408;SDS011;7803;48.130;13.788;2023-05-14T11:21:37;28.67;;;22.67;;
15408;SDS011;7803;48.130;13.788;2023-05-14T11:24:39;26.83;;;21.95;;
15408;SDS011;7803;48.130;13.788;2023-05-14T11:27:41;24.92;;;20.60;;
15408;SDS011;7803;48.130;13.788;2023-05-14T11:30:44;26.17;;;20.70;;
15408;SDS011;7803;48.130;13.788;2023-05-14T11:33:48;25.25;;;18.10;;
15408;SDS011;7803;48.130;13.788;2023-05-14T11:36:49;22.48;;;18.20;;
15408;SDS011;7803;48.130;13.788;2023-05-14T11:39:53;22.42;;;17.45;;
15408;SDS011;7803;48.130;13.788;2023-05-14T11:42:56;21.55;;;16.77;;
15408;SDS011;7803;48.130;13.788;2023-05-14T11:45:58;20.25;;;15.98;;
15408;SDS011;7803;48.130;13.788;2023-05-14T11:49:03;20.60;;;15.18;;
15408;SDS011;7803;48.130;13.788;2023-05-14T11:52:06;17.83;;;14.35;;
15408;SDS011;7803;48.130;13.788;2023-05-14T11:55:11;19.80;;;14.00;;
15408;SDS011;7803;48.130;13.788;2023-05-14T11:58:13;19.23;;;14.40;;
15408;SDS011;7803;48.130;13.788;2023-05-14T12:01:16;18.15;;;13.55;;
15408;SDS011;7803;48.130;13.788;2023-05-14T12:04:19;16.63;;;12.73;;
15408;SDS011;7803;48.130;13.788;2023-05-14T12:07:22;16.13;;;12.43;;
15408;SDS011;7803;48.130;13.788;2023-05-14T12:10:24;15.38;;;12.25;;
15408;SDS011;7803;48.130;13.788;2023-05-14T12:13:26;15.82;;;12.05;;
15408;SDS011;7803;48.130;13.788;2023-05-14T12:16:29;13.38;;;10.85;;
15408;SDS011;7803;48.130;13.788;2023-05-14T12:19:33;14.52;;;10.73;;
15408;SDS011;7803;48.130;13.788;2023-05-14T12:22:41;14.95;;;11.35;;
15408;SDS011;7803;48.130;13.788;2023-05-14T12:25:49;21.00;;;11.10;;
15408;SDS011;7803;48.130;13.788;2023-05-14T12:28:55;15.10;;;11.05;;
15408;SDS011;7803;48.130;13.788;2023-05-14T12:31:59;13.05;;;10.23;;
15408;SDS011;7803;48.130;13.788;2023-05-14T12:35:05;14.95;;;10.30;;
15408;SDS011;7803;48.130;13.788;2023-05-14T12:38:07;14.82;;;10.18;;
15408;SDS011;7803;48.130;13.788;2023-05-14T12:41:09;17.85;;;10.85;;
15408;SDS011;7803;48.130;13.788;2023-05-14T12:44:11;15.55;;;10.07;;
15408;SDS011;7803;48.130;13.788;2023-05-14T12:47:13;17.33;;;10.20;;
15408;SDS011;7803;48.130;13.788;2023-05-14T12:50:17;12.93;;;9.70;;
15408;SDS011;7803;48.130;13.788;2023-05-14T12:53:20;10.95;;;8.82;;
15408;SDS011;7803;48.130;13.788;2023-05-14T12:56:22;11.45;;;8.60;;
15408;SDS011;7803;48.130;13.788;2023-05-14T12:59:27;14.65;;;9.32;;
15408;SDS011;7803;48.130;13.788;2023-05-14T13:02:29;12.13;;;8.32;;
15408;SDS011;7803;48.130;13.788;2023-05-14T13:05:32;13.07;;;8.73;;
15408;SDS011;7803;48.130;13.788;2023-05-14T13:08:34;10.40;;;8.50;;
15408;SDS011;7803;48.130;13.788;2023-05-14T13:11:36;9.80;;;8.57;;
15408;SDS011;7803;48.130;13.788;2023-05-14T13:14:39;10.93;;;8.20;;
15408;SDS011;7803;48.130;13.788;2023-05-14T13:17:41;10.05;;;8.00;;
15408;SDS011;7803;48.130;13.788;2023-05-14T13:20:44;10.57;;;7.85;;
15408;SDS011;7803;48.130;13.788;2023-05-14T13:23:46;11.63;;;7.90;;
15408;SDS011;7803;48.130;13.788;2023-05-14T13:26:49;9.52;;;7.63;;
15408;SDS011;7803;48.130;13.788;2023-05-14T13:29:51;10.27;;;7.53;;
15408;SDS011;7803;48.130;13.788;2023-05-14T13:32:53;11.77;;;7.80;;
15408;SDS011;7803;48.130;13.788;2023-05-14T13:35:56;8.32;;;7.22;;
15408;SDS011;7803;48.130;13.788;2023-05-14T13:38:58;8.60;;;7.65;;
15408;SDS011;7803;48.130;13.788;2023-05-14T13:42:00;9.73;;;7.50;;
15408;SDS011;7803;48.130;13.788;2023-05-14T13:45:02;10.25;;;7.15;;
15408;SDS011;7803;48.130;13.788;2023-05-14T13:48:04;8.50;;;7.10;;
15408;SDS011;7803;48.130;13.788;2023-05-14T13:51:08;8.80;;;6.80;;
15408;SDS011;7803;48.130;13.788;2023-05-14T13:54:10;9.38;;;7.90;;
15408;SDS011;7803;48.130;13.788;2023-05-14T13:57:12;8.40;;;6.38;;
15408;SDS011;7803;48.130;13.788;2023-05-14T14:00:14;8.38;;;6.65;;
15408;SDS011;7803;48.130;13.788;2023-05-14T14:03:17;11.45;;;7.05;;
15408;SDS011;7803;48.130;13.788;2023-05-14T14:06:20;8.38;;;6.72;;
15408;SDS011;7803;48.130;13.788;2023-05-14T14:09:22;10.18;;;7.32;;
15408;SDS011;7803;48.130;13.788;2023-05-14T14:12:24;7.95;;;6.40;;
15408;SDS011;7803;48.130;13.788;2023-05-14T14:15:27;8.80;;;6.25;;
15408;SDS011;7803;48.130;13.788;2023-05-14T14:18:29;7.05;;;6.32;;
15408;SDS011;7803;48.130;13.788;2023-05-14T14:21:32;10.65;;;6.68;;
15408;SDS011;7803;48.130;13.788;2023-05-14T14:24:35;8.73;;;6.15;;
15408;SDS011;7803;48.130;13.788;2023-05-14T14:27:37;10.93;;;6.35;;
15408;SDS011;7803;48.130;13.788;2023-05-14T14:30:39;8.30;;;6.43;;
15408;SDS011;7803;48.130;13.788;2023-05-14T14:33:42;8.13;;;6.35;;
15408;SDS011;7803;48.130;13.788;2023-05-14T14:36:46;9.13;;;6.57;;
15408;SDS011;7803;48.130;13.788;2023-05-14T14:39:48;8.48;;;5.82;;
15408;SDS011;7803;48.130;13.788;2023-05-14T14:42:50;11.77;;;6.30;;
15408;SDS011;7803;48.130;13.788;2023-05-14T14:45:52;7.53;;;5.72;;
15408;SDS011;7803;48.130;13.788;2023-05-14T14:48:54;7.13;;;5.50;;
15408;SDS011;7803;48.130;13.788;2023-05-14T14:51:57;7.05;;;5.55;;
15408;SDS011;7803;48.130;13.788;2023-05-14T14:54:59;8.27;;;6.00;;
15408;SDS011;7803;48.130;13.788;2023-05-14T14:58:01;7.22;;;5.50;;
15408;SDS011;7803;48.130;13.788;2023-05-14T15:01:03;6.90;;;5.68;;
15408;SDS011;7803;48.130;13.788;2023-05-14T15:04:05;8.05;;;6.05;;
15408;SDS011;7803;48.130;13.788;2023-05-14T15:07:09;8.82;;;5.28;;
15408;SDS011;7803;48.130;13.788;2023-05-14T15:10:11;7.32;;;5.15;;
15408;SDS011;7803;48.130;13.788;2023-05-14T15:13:13;6.65;;;5.10;;
15408;SDS011;7803;48.130;13.788;2023-05-14T15:16:15;8.25;;;5.28;;
15408;SDS011;7803;48.130;13.788;2023-05-14T15:19:17;7.05;;;5.10;;
15408;SDS011;7803;48.130;13.788;2023-05-14T15:22:20;5.82;;;4.85;;
15408;SDS011;7803;48.130;13.788;2023-05-14T15:25:23;7.45;;;4.97;;
15408;SDS011;7803;48.130;13.788;2023-05-14T15:28:25;9.38;;;5.25;;
15408;SDS011;7803;48.130;13.788;2023-05-14T15:31:27;7.90;;;5.57;;
15408;SDS011;7803;48.130;13.788;2023-05-14T15:34:29;7.05;;;4.60;;
15408;SDS011;7803;48.130;13.788;2023-05-14T15:37:34;6.88;;;4.60;;
15408;SDS011;7803;48.130;13.788;2023-05-14T15:40:37;5.85;;;4.72;;
15408;SDS011;7803;48.130;13.788;2023-05-14T15:43:40;5.75;;;4.72;;
15408;SDS011;7803;48.130;13.788;2023-05-14T15:46:42;7.25;;;4.43;;
15408;SDS011;7803;48.130;13.788;2023-05-14T15:49:44;5.50;;;4.35;;
15408;SDS011;7803;48.130;13.788;2023-05-14T15:52:48;7.47;;;4.50;;
15408;SDS011;7803;48.130;13.788;2023-05-14T15:55:50;6.15;;;4.47;;
15408;SDS011;7803;48.130;13.788;2023-05-14T15:58:52;5.68;;;4.47;;
15408;SDS011;7803;48.130;13.788;2023-05-14T16:01:54;13.23;;;12.20;;
15408;SDS011;7803;48.130;13.788;2023-05-14T16:04:56;22.45;;;20.35;;
15408;SDS011;7803;48.130;13.788;2023-05-14T16:07:59;21.45;;;19.38;;
15408;SDS011;7803;48.130;13.788;2023-05-14T16:11:01;12.60;;;11.18;;
15408;SDS011;7803;48.130;13.788;2023-05-14T16:14:04;10.05;;;9.15;;
15408;SDS011;7803;48.130;13.788;2023-05-14T16:17:06;10.00;;;8.50;;
15408;SDS011;7803;48.130;13.788;2023-05-14T16:20:08;10.23;;;7.78;;
15408;SDS011;7803;48.130;13.788;2023-05-14T16:23:13;9.45;;;8.07;;
15408;SDS011;7803;48.130;13.788;2023-05-14T16:26:15;10.82;;;8.18;;
15408;SDS011;7803;48.130;13.788;2023-05-14T16:29:17;10.60;;;7.40;;
15408;SDS011;7803;48.130;13.788;2023-05-14T16:32:19;14.57;;;9.05;;
15408;SDS011;7803;48.130;13.788;2023-05-14T16:35:22;11.35;;;7.85;;
15408;SDS011;7803;48.130;13.788;2023-05-14T16:38:25;10.35;;;7.80;;
15408;SDS011;7803;48.130;13.788;2023-05-14T16:41:27;9.30;;;6.90;;
15408;SDS011;7803;48.130;13.788;2023-05-14T16:44:29;10.13;;;7.30;;
15408;SDS011;7803;48.130;13.788;2023-05-14T16:47:31;9.45;;;7.20;;
15408;SDS011;7803;48.130;13.788;2023-05-14T16:50:33;11.15;;;7.35;;
15408;SDS011;7803;48.130;13.788;2023-05-14T16:53:36;12.30;;;7.72;;
15408;SDS011;7803;48.130;13.788;2023-05-14T16:56:38;14.35;;;7.85;;
15408;SDS011;7803;48.130;13.788;2023-05-14T16:59:41;17.55;;;9.00;;
15408;SDS011;7803;48.130;13.788;2023-05-14T17:02:43;13.80;;;7.85;;
15408;SDS011;7803;48.130;13.788;2023-05-14T17:05:48;12.15;;;7.50;;
15408;SDS011;7803;48.130;13.788;2023-05-14T17:08:52;10.38;;;7.22;;
15408;SDS011;7803;48.130;13.788;2023-05-14T17:11:54;13.02;;;6.90;;
15408;SDS011;7803;48.130;13.788;2023-05-14T17:14:56;11.35;;;7.10;;
15408;SDS011;7803;48.130;13.788;2023-05-14T17:17:58;12.65;;;7.53;;
15408;SDS011;7803;48.130;13.788;2023-05-14T17:21:00;14.63;;;8.02;;
15408;SDS011;7803;48.130;13.788;2023-05-14T17:24:05;10.48;;;6.65;;
15408;SDS011;7803;48.130;13.788;2023-05-14T17:27:07;12.27;;;6.93;;
15408;SDS011;7803;48.130;13.788;2023-05-14T17:30:09;11.00;;;6.68;;
15408;SDS011;7803;48.130;13.788;2023-05-14T17:33:12;8.73;;;6.45;;
15408;SDS011;7803;48.130;13.788;2023-05-14T17:36:14;9.48;;;6.03;;
15408;SDS011;7803;48.130;13.788;2023-05-14T17:39:17;9.18;;;5.93;;
15408;SDS011;7803;48.130;13.788;2023-05-14T17:42:19;8.30;;;5.95;;
15408;SDS011;7803;48.130;13.788;2023-05-14T17:45:21;8.82;;;5.65;;
15408;SDS011;7803;48.130;13.788;2023-05-14T17:48:23;7.80;;;5.82;;
15408;SDS011;7803;48.130;13.788;2023-05-14T17:51:25;8.27;;;5.82;;
15408;SDS011;7803;48.130;13.788;2023-05-14T17:54:28;9.75;;;5.85;;
15408;SDS011;7803;48.130;13.788;2023-05-14T17:57:30;7.85;;;5.78;;
15408;SDS011;7803;48.130;13.788;2023-05-14T18:00:32;7.47;;;5.20;;
15408;SDS011;7803;48.130;13.788;2023-05-14T18:03:34;9.45;;;5.60;;
15408;SDS011;7803;48.130;13.788;2023-05-14T18:06:36;6.85;;;5.10;;
15408;SDS011;7803;48.130;13.788;2023-05-14T18:09:39;8.02;;;5.25;;
15408;SDS011;7803;48.130;13.788;2023-05-14T18:12:41;9.90;;;5.82;;